Terminal Aerodrome Forecast
Issued by NWS

Home | Current Version | Previous Version | Text Only | Print | Product List | Glossary On
Versions: 1 2 3 4 5 6 7 8 9 10 11 12 13 14 15 16
000
FTAK31 PAJN 011739
TAFAJN
TAF
PAJN 011739Z 0118/0218 12012KT P6SM -RA SCT025 BKN045 OVC060
     FM012100 10010KT 6SM -RA BR SCT015 BKN035 OVC045
     FM020000 09007KT 5SM RA BR SCT015 BKN025 OVC035
     FM020800 11015G25KT 4SM RA BR BKN015 OVC020 WS020/15035KT=

USA.gov is the U.S. government's official web portal to all federal, state and local government web resources and services.